Wetterdaten: aktuell Montag, 17.09.2018 19:39
Datum Zeit Temp. A. Temp. -10cm Temp. -30cm Temp. -50cm Temp. +5cm Feuchte A. Luftdruck Regen Wind Richtung Richtung Sonnenschein ET UV Solar Taupunkt Windchill Windben
17.09.2018 19:39 21.1 C 21.1 C 18.3 C 17.2 C 18.3 C 63 % 1017.2 hPa 0.0 l/m 6.4 km/h (2 Bft) SO 124 30 min 0 mm 0.0 UV-I 5 W/m 13.8 C 21.1 C 6.4 km/h (2 Bft)
17.09.2018 18:40 24.1 C 21.7 C 18.3 C 17.2 C 22.2 C 61 % 1017.4 hPa 0.0 l/m 0.0 km/h (0 Bft) N 0 60 min 0 mm 0.0 UV-I 107 W/m 16.1 C 24.1 C 0.0 km/h (0 Bft)
17.09.2018 17:35 24.6 C 22.2 C 17.8 C 17.2 C 23.9 C 52 % 1017.8 hPa 0.0 l/m 3.2 km/h (1 Bft) NW 315 60 min 0 mm 0.9 UV-I 292 W/m 14.1 C 24.6 C 8.0 km/h (2 Bft)
17.09.2018 16:30 24.2 C 22.2 C 17.8 C 17.2 C 28.3 C 58 % 1018.2 hPa 0.0 l/m 3.2 km/h (1 Bft) W-NW 292 60 min 0 mm 2.1 UV-I 450 W/m 15.4 C 24.2 C 9.7 km/h (2 Bft)
17.09.2018 15:25 24.5 C 21.7 C 17.2 C 17.2 C 30.0 C 63 % 1018.9 hPa 0.0 l/m 4.8 km/h (1 Bft) W-NW 292 60 min 0 mm 3.5 UV-I 584 W/m 17.0 C 24.5 C 9.7 km/h (2 Bft)
17.09.2018 14:20 23.7 C 20.0 C 17.2 C 17.2 C 31.7 C 63 % 1019.4 hPa 0.0 l/m 3.2 km/h (1 Bft) NW 315 60 min 0 mm 4.5 UV-I 659 W/m 16.2 C 23.7 C 8.0 km/h (2 Bft)
17.09.2018 13:15 22.4 C 18.3 C 17.2 C 17.2 C 32.2 C 66 % 1019.9 hPa 0.0 l/m 3.2 km/h (1 Bft) N 360 60 min 0 mm 4.9 UV-I 680 W/m 15.7 C 22.4 C 6.4 km/h (2 Bft)
17.09.2018 12:10 20.6 C 17.2 C 17.2 C 17.2 C 26.7 C 71 % 1020.4 hPa 0.0 l/m 1.6 km/h (1 Bft) NW 315 60 min 0 mm 4.2 UV-I 636 W/m 15.2 C 20.6 C 4.8 km/h (1 Bft)
17.09.2018 11:05 18.9 C 16.1 C 17.2 C 17.2 C 22.8 C 76 % 1021.1 hPa 0.0 l/m 0.0 km/h (0 Bft) N-NO 22 60 min 0 mm 3.0 UV-I 534 W/m 14.6 C 18.9 C 3.2 km/h (1 Bft)
17.09.2018 10:00 16.8 C 15.6 C 17.2 C 17.2 C 15.6 C 81 % 1021.6 hPa 0.0 l/m 0.0 km/h (0 Bft) N 0 60 min 0 mm 1.6 UV-I 392 W/m 13.5 C 16.8 C 0.0 km/h (0 Bft)
17.09.2018 08:55 14.6 C 15.6 C 17.2 C 17.2 C 13.3 C 87 % 1021.6 hPa 0.0 l/m 1.6 km/h (1 Bft) SO 135 40 min 0 mm 0.6 UV-I 221 W/m 12.5 C 14.6 C 6.4 km/h (2 Bft)
17.09.2018 07:50 13.9 C 15.6 C 17.2 C 17.2 C 13.3 C 87 % 1021.7 hPa 0.0 l/m 1.6 km/h (1 Bft) SO 135 0 min 0 mm 0.0 UV-I 33 W/m 11.8 C 13.9 C 3.2 km/h (1 Bft)
17.09.2018 06:45 14.1 C 15.6 C 17.2 C 17.2 C 12.8 C 85 % 1021.5 hPa 0.0 l/m 1.6 km/h (1 Bft) O-SO 112 0 min 0 mm 0.0 UV-I 0 W/m 11.6 C 14.1 C 6.4 km/h (2 Bft)
17.09.2018 05:40 13.8 C 16.1 C 17.2 C 17.2 C 12.8 C 87 % 1021.5 hPa 0.0 l/m 1.6 km/h (1 Bft) SO 135 0 min 0 mm 0.0 UV-I 0 W/m 11.7 C 13.8 C 6.4 km/h (2 Bft)
17.09.2018 04:35 14.2 C 16.1 C 17.8 C 17.2 C 12.8 C 85 % 1021.4 hPa 0.0 l/m 6.4 km/h (2 Bft) O-SO 112 0 min 0 mm 0.0 UV-I 0 W/m 11.7 C 14.2 C 9.7 km/h (2 Bft)
17.09.2018 03:30 14.3 C 16.1 C 17.8 C 17.2 C 12.8 C 82 % 1021.6 hPa 0.0 l/m 6.4 km/h (2 Bft) SO 135 0 min 0 mm 0.0 UV-I 0 W/m 11.3 C 14.3 C 8.0 km/h (2 Bft)
17.09.2018 02:25 14.8 C 16.7 C 17.8 C 17.2 C 12.8 C 80 % 1021.7 hPa 0.0 l/m 3.2 km/h (1 Bft) SO 135 0 min 0 mm 0.0 UV-I 0 W/m 11.4 C 14.8 C 6.4 km/h (2 Bft)
17.09.2018 01:20 15.9 C 16.7 C 17.8 C 17.2 C 13.3 C 74 % 1022.0 hPa 0.0 l/m 0.0 km/h (0 Bft) S-SW 202 0 min 0 mm 0.0 UV-I 0 W/m 11.3 C 15.9 C 1.6 km/h (1 Bft)
17.09.2018 00:15 15.8 C 17.2 C 17.8 C 17.2 C 13.9 C 77 % 1022.2 hPa 0.0 l/m 4.8 km/h (1 Bft) W-SW 247 0 min 0 mm 0.0 UV-I 0 W/m 11.8 C 15.8 C 8.0 km/h (2 Bft)
16.09.2018 23:10 15.9 C 17.2 C 17.8 C 17.2 C 13.3 C 79 % 1022.4 hPa 0.0 l/m 1.6 km/h (1 Bft) S-SW 202 0 min 0 mm 0.0 UV-I 0 W/m 12.3 C 15.9 C 4.8 km/h (1 Bft)
16.09.2018 22:05 15.9 C 17.8 C 17.8 C 17.2 C 14.4 C 85 % 1022.1 hPa 0.0 l/m 6.4 km/h (2 Bft) S-SW 202 0 min 0 mm 0.0 UV-I 0 W/m 13.4 C 15.9 C 9.7 km/h (2 Bft)
16.09.2018 21:00 16.2 C 18.3 C 17.8 C 17.2 C 15.0 C 82 % 1022.0 hPa 0.0 l/m 6.4 km/h (2 Bft) SO 135 0 min 0 mm 0.0 UV-I 0 W/m 13.1 C 16.2 C 9.7 km/h (2 Bft)
16.09.2018 20:00 17.6 C 18.9 C 17.8 C 17.2 C 16.1 C 80 % 1021.4 hPa 0.0 l/m 4.8 km/h (1 Bft) S-SW 202 0 min 0 mm 0.0 UV-I 0 W/m 14.1 C 17.6 C 8.0 km/h (2 Bft)
_ Min-Zeit 05:45 06:00 05:30 20:00 04:20 18:05 19:00 - 20:35 - - - - - - 01:15 05:45 20:40
Minimum _ 13.7 C 15.6 C 17.2 C 17.2 C 12.2 C 49 % 1017.2 hPa - 0.0 km/h (0 Bft) - - - - - - 11.2 C 13.7 C 0.0 km/h (0 Bft)
_ Max-Zeit 18:10 15:55 17:45 20:00 13:35 07:55 21:30 20:00 21:00 - - 08:20 14:00 13:05 13:25 15:10 18:00 15:50
Maximum _ 24.8 C 22.2 C 18.3 C 17.2 C 33.9 C 88 % 1022.4 hPa 0.0 l/m 6.4 km/h
SO (2 Bft)
- - 5 min 0 mm 4.9 UV-I 684 W/m 17.6 C 24.7 C 12.9 km/h
NW (3 Bft)
Durchschnitt _ 18.1 C 18.0 C 17.6 C 17.2 C 18.4 C 75 % 1020.8 hPa #0.0 l/m 2.8 km/h (1 Bft) SO - #10:55 h #3.124 mm 2.9 UV-I 400 W/m 13.4 C 18.1 C 5.9 km/h (2 Bft)